createdAt,value
2022-12-27T00:02:22.079Z,7.58
2022-12-27T00:04:50.133Z,7.57
2022-12-27T00:07:18.989Z,6.86
2022-12-27T00:09:46.642Z,6.61
2022-12-27T00:12:14.110Z,6.42
2022-12-27T00:14:41.693Z,6.40
2022-12-27T00:17:09.162Z,6.33
2022-12-27T00:19:36.667Z,6.12
2022-12-27T00:22:05.275Z,5.97
2022-12-27T00:24:35.239Z,5.77
2022-12-27T00:27:02.937Z,5.55
2022-12-27T00:29:30.591Z,5.45
2022-12-27T00:31:58.156Z,5.33
2022-12-27T00:34:25.680Z,5.30
2022-12-27T00:36:53.149Z,5.22
2022-12-27T00:39:20.668Z,5.15
2022-12-27T00:41:49.546Z,5.09
2022-12-27T00:44:17.262Z,5.04
2022-12-27T00:46:44.827Z,4.92
2022-12-27T00:49:12.399Z,4.83
2022-12-27T00:51:39.878Z,4.79
2022-12-27T00:54:07.844Z,4.79
2022-12-27T00:56:35.388Z,4.61
2022-12-27T00:59:05.747Z,4.67
2022-12-27T01:01:36.203Z,4.56
2022-12-27T01:04:05.378Z,4.47
2022-12-27T01:06:35.316Z,4.46
2022-12-27T01:09:03.757Z,4.40
2022-12-27T01:11:31.986Z,4.34
2022-12-27T01:14:00.752Z,4.30
2022-12-27T01:16:31.187Z,4.22
2022-12-27T01:18:59.940Z,4.28
2022-12-27T01:21:30.534Z,4.22
2022-12-27T01:23:58.140Z,4.15
2022-12-27T01:26:26.018Z,4.18
2022-12-27T01:28:54.531Z,4.01
2022-12-27T01:31:24.680Z,4.17
2022-12-27T01:33:56.947Z,4.07
2022-12-27T01:36:26.023Z,4.01
2022-12-27T01:38:53.549Z,4.07
2022-12-27T01:41:41.877Z,4.06
2022-12-27T01:44:49.431Z,4.28
2022-12-27T01:47:22.914Z,4.13
2022-12-27T01:49:58.947Z,4.31
2022-12-27T01:52:34.440Z,4.09
2022-12-27T01:55:09.872Z,3.95
2022-12-27T01:57:37.731Z,3.76
2022-12-27T02:00:12.186Z,3.98
2022-12-27T02:02:40.499Z,3.65
2022-12-27T02:05:13.588Z,3.47
2022-12-27T02:07:48.733Z,3.47
2022-12-27T02:10:17.244Z,3.39
2022-12-27T02:12:44.779Z,3.32
2022-12-27T02:15:12.405Z,3.31
2022-12-27T02:17:39.929Z,3.32
2022-12-27T02:20:13.484Z,3.40
2022-12-27T02:23:34.798Z,3.43
2022-12-27T02:26:46.579Z,3.56
2022-12-27T02:29:23.721Z,3.58
2022-12-27T02:32:00.197Z,3.61
2022-12-27T02:34:38.311Z,3.49
2022-12-27T02:37:11.012Z,3.55
2022-12-27T02:39:43.608Z,3.52
2022-12-27T02:42:30.210Z,3.76
2022-12-27T02:45:16.787Z,3.56
2022-12-27T02:48:03.719Z,3.31
2022-12-27T02:51:03.353Z,3.14
2022-12-27T02:53:40.331Z,3.09
2022-12-27T02:56:39.810Z,3.06
2022-12-27T02:59:23.980Z,2.92
2022-12-27T03:02:21.054Z,2.93
2022-12-27T03:05:03.947Z,2.79
2022-12-27T03:07:38.426Z,2.76
2022-12-27T03:10:42.051Z,2.75
2022-12-27T03:13:37.983Z,2.68
2022-12-27T03:16:19.930Z,2.59
2022-12-27T03:19:00.066Z,2.58
2022-12-27T03:21:49.662Z,2.60
2022-12-27T03:24:37.413Z,2.49
2022-12-27T03:27:10.767Z,2.36
2022-12-27T03:29:56.747Z,2.34
2022-12-27T03:32:42.680Z,2.35
2022-12-27T03:35:17.672Z,2.35
2022-12-27T03:38:05.709Z,2.31
2022-12-27T03:41:01.776Z,2.22
2022-12-27T03:43:29.773Z,2.16
2022-12-27T03:46:17.081Z,2.16
2022-12-27T03:49:04.312Z,2.13
2022-12-27T03:51:38.694Z,2.16
2022-12-27T03:54:10.321Z,2.10
2022-12-27T03:56:38.806Z,2.15
2022-12-27T03:59:06.701Z,2.12
2022-12-27T04:01:34.261Z,2.20
2022-12-27T04:04:01.871Z,2.27
2022-12-27T04:06:29.358Z,2.17
2022-12-27T04:09:15.953Z,2.14
2022-12-27T04:12:01.009Z,2.18
2022-12-27T04:14:46.321Z,2.37
2022-12-27T04:17:31.374Z,2.17
2022-12-27T04:20:16.673Z,2.23
2022-12-27T04:23:01.522Z,2.22
2022-12-27T04:25:48.385Z,2.51
2022-12-27T04:28:33.831Z,2.52
2022-12-27T04:31:18.823Z,2.78
2022-12-27T04:34:04.258Z,2.96
2022-12-27T04:36:31.787Z,3.21
2022-12-27T04:38:59.288Z,3.66
2022-12-27T04:41:45.621Z,3.61
2022-12-27T04:44:31.039Z,3.71
2022-12-27T04:47:16.620Z,3.72
2022-12-27T04:50:01.811Z,3.48
2022-12-27T04:52:46.979Z,2.99
2022-12-27T04:55:20.408Z,3.06
2022-12-27T04:57:49.709Z,3.06
2022-12-27T05:00:35.952Z,3.16
2022-12-27T05:03:06.653Z,3.06
2022-12-27T05:05:35.524Z,3.01
2022-12-27T05:08:21.558Z,2.56
2022-12-27T05:11:06.617Z,2.64
2022-12-27T05:13:53.392Z,2.48
2022-12-27T05:16:21.039Z,2.91
2022-12-27T05:18:48.584Z,2.66
2022-12-27T05:21:16.068Z,2.94
2022-12-27T05:24:05.378Z,2.97
2022-12-27T05:26:34.071Z,2.80
2022-12-27T05:29:03.034Z,2.86
2022-12-27T05:31:30.624Z,2.45
2022-12-27T05:33:58.853Z,2.22
2022-12-27T05:36:26.599Z,2.33
2022-12-27T05:38:54.199Z,2.25
2022-12-27T05:41:21.687Z,2.25
2022-12-27T05:43:49.357Z,2.39
2022-12-27T05:46:20.463Z,2.79
2022-12-27T05:48:48.697Z,2.66
2022-12-27T05:51:18.247Z,2.53
2022-12-27T05:53:46.156Z,2.31
2022-12-27T05:56:16.642Z,2.37
2022-12-27T05:58:44.774Z,2.04
2022-12-27T06:01:14.973Z,2.22
2022-12-27T06:03:44.200Z,2.33
2022-12-27T06:06:12.303Z,2.59
2022-12-27T06:08:40.632Z,2.24
2022-12-27T06:11:10.104Z,2.32
2022-12-27T06:13:38.665Z,2.03
2022-12-27T06:16:09.113Z,2.33
2022-12-27T06:18:38.733Z,2.51
2022-12-27T06:21:10.849Z,2.10
2022-12-27T06:23:40.523Z,2.13
2022-12-27T06:26:09.077Z,2.13
2022-12-27T06:28:36.580Z,2.06
2022-12-27T06:31:04.983Z,2.13
2022-12-27T06:33:32.847Z,2.19
2022-12-27T06:36:00.370Z,2.11
2022-12-27T06:38:29.242Z,2.38
2022-12-27T06:41:01.704Z,2.24
2022-12-27T06:43:29.222Z,2.36
2022-12-27T06:45:57.710Z,2.63
2022-12-27T06:48:25.761Z,2.70
2022-12-27T06:50:53.431Z,2.45
2022-12-27T06:53:21.024Z,2.28
2022-12-27T06:55:49.947Z,2.10
2022-12-27T06:58:17.664Z,2.04
2022-12-27T07:00:45.146Z,2.23
2022-12-27T07:03:12.697Z,2.22
2022-12-27T07:05:40.414Z,2.10
2022-12-27T07:08:07.929Z,1.94
2022-12-27T07:10:37.227Z,1.66
2022-12-27T07:13:06.061Z,1.84
2022-12-27T07:15:33.565Z,1.76
2022-12-27T07:18:01.048Z,1.81
2022-12-27T07:20:28.581Z,2.03
2022-12-27T07:22:58.817Z,1.88
2022-12-27T07:25:26.368Z,1.91
2022-12-27T07:27:54.342Z,1.80
2022-12-27T07:30:23.443Z,1.80
2022-12-27T07:32:50.960Z,1.80
2022-12-27T07:35:18.479Z,2.01
2022-12-27T07:37:45.970Z,2.22
2022-12-27T07:40:13.517Z,2.02
2022-12-27T07:42:41.076Z,1.90
2022-12-27T07:45:09.629Z,2.33
2022-12-27T07:47:38.449Z,2.78
2022-12-27T07:50:06.675Z,2.45
2022-12-27T07:52:34.163Z,2.66
2022-12-27T07:55:01.694Z,2.77
2022-12-27T07:57:29.609Z,2.84
2022-12-27T07:59:57.090Z,2.69
2022-12-27T08:02:24.663Z,3.04
2022-12-27T08:04:53.590Z,2.69
2022-12-27T08:07:21.412Z,3.18
2022-12-27T08:09:49.838Z,3.30
2022-12-27T08:12:17.565Z,3.13
2022-12-27T08:14:45.651Z,2.97
2022-12-27T08:17:17.074Z,3.06
2022-12-27T08:19:44.581Z,3.00
2022-12-27T08:22:13.432Z,3.15
2022-12-27T08:24:41.571Z,3.19
2022-12-27T08:27:09.450Z,2.90
2022-12-27T08:29:37.735Z,2.84
2022-12-27T08:32:06.023Z,2.99
2022-12-27T08:34:33.499Z,3.18
2022-12-27T08:37:00.972Z,3.58
2022-12-27T08:39:30.174Z,4.02
2022-12-27T08:41:57.685Z,4.95
2022-12-27T08:44:25.532Z,5.32
2022-12-27T08:46:53.037Z,5.08
2022-12-27T08:49:20.526Z,5.52
2022-12-27T08:51:47.999Z,5.68
2022-12-27T08:54:15.484Z,6.39
2022-12-27T08:56:44.303Z,6.49
2022-12-27T08:59:11.790Z,6.43
2022-12-27T09:01:39.364Z,6.83
2022-12-27T09:04:06.980Z,7.90
2022-12-27T09:06:34.492Z,7.93
2022-12-27T09:09:02.028Z,7.84
2022-12-27T09:11:31.298Z,7.82
2022-12-27T09:14:02.275Z,8.05
2022-12-27T09:16:30.949Z,8.11
2022-12-27T09:18:59.966Z,7.59
2022-12-27T09:21:31.546Z,7.29
2022-12-27T09:23:59.680Z,6.83
2022-12-27T09:26:29.237Z,6.63
2022-12-27T09:28:57.789Z,6.40
2022-12-27T09:31:27.309Z,6.29
2022-12-27T09:33:55.099Z,6.55
2022-12-27T09:36:24.611Z,6.65
2022-12-27T09:38:53.513Z,7.25
2022-12-27T09:42:26.012Z,7.31
2022-12-27T09:44:22.983Z,6.99
2022-12-27T09:46:59.050Z,6.81
2022-12-27T09:49:32.011Z,6.50
2022-12-27T09:52:03.524Z,6.01
2022-12-27T09:54:38.124Z,6.22
2022-12-27T09:57:22.299Z,6.59
2022-12-27T09:59:52.547Z,6.81
2022-12-27T10:02:23.659Z,6.48
2022-12-27T10:05:19.118Z,6.67
2022-12-27T10:07:54.169Z,6.79
2022-12-27T10:10:33.803Z,6.72
2022-12-27T10:13:11.205Z,6.39
2022-12-27T10:15:48.315Z,6.41
2022-12-27T10:18:33.429Z,6.51
2022-12-27T10:21:11.425Z,6.45
2022-12-27T10:23:43.032Z,7.05
2022-12-27T10:26:14.757Z,6.49
2022-12-27T10:28:44.703Z,6.45
2022-12-27T10:31:15.833Z,6.10
2022-12-27T10:33:45.795Z,6.28
2022-12-27T10:36:16.127Z,6.81
2022-12-27T10:38:43.835Z,6.95
2022-12-27T10:41:27.351Z,6.87
2022-12-27T10:43:56.178Z,7.20
2022-12-27T10:46:32.504Z,7.23
2022-12-27T10:49:20.786Z,7.33
2022-12-27T10:51:49.724Z,7.43
2022-12-27T10:54:23.231Z,7.39
2022-12-27T10:56:50.755Z,7.18
2022-12-27T10:59:20.148Z,7.05
2022-12-27T11:01:49.967Z,7.25
2022-12-27T11:04:21.817Z,6.72
2022-12-27T11:06:51.486Z,6.80
2022-12-27T11:09:25.837Z,6.89
2022-12-27T11:11:53.406Z,7.45
2022-12-27T11:14:22.051Z,7.28
2022-12-27T11:16:50.162Z,6.83
2022-12-27T11:19:26.733Z,7.47
2022-12-27T11:21:55.739Z,8.01
2022-12-27T11:24:23.835Z,7.29
2022-12-27T11:26:54.532Z,7.44
2022-12-27T11:29:25.605Z,7.28
2022-12-27T11:31:54.722Z,6.98
2022-12-27T11:34:28.668Z,7.67
2022-12-27T11:37:03.470Z,7.94
2022-12-27T11:39:45.352Z,8.26
2022-12-27T11:42:26.605Z,8.27
2022-12-27T11:45:04.024Z,7.94
2022-12-27T11:47:37.153Z,8.19
2022-12-27T11:50:23.232Z,9.01
2022-12-27T11:53:09.869Z,9.25
2022-12-27T11:56:11.552Z,9.20
2022-12-27T11:59:19.973Z,8.36
2022-12-27T12:02:08.837Z,8.56
2022-12-27T12:05:15.947Z,9.43
2022-12-27T12:08:01.458Z,9.03
2022-12-27T12:10:40.266Z,8.44
2022-12-27T12:13:19.746Z,8.02
2022-12-27T12:16:27.037Z,7.47
2022-12-27T12:19:08.710Z,7.57
2022-12-27T12:21:41.405Z,7.20
2022-12-27T12:24:37.376Z,7.88
2022-12-27T12:27:18.917Z,8.13
2022-12-27T12:30:02.610Z,8.58
2022-12-27T12:32:43.999Z,8.45
2022-12-27T12:35:28.619Z,8.73
2022-12-27T12:38:19.841Z,8.74
2022-12-27T12:41:08.934Z,8.25
2022-12-27T12:44:17.082Z,8.61
2022-12-27T12:46:50.628Z,8.56
2022-12-27T12:49:40.949Z,8.74
2022-12-27T12:52:26.286Z,8.61
2022-12-27T12:55:15.547Z,8.35
2022-12-27T12:57:57.809Z,8.98
2022-12-27T13:00:36.229Z,8.69
2022-12-27T13:03:45.845Z,7.91
2022-12-27T13:06:26.369Z,8.12
2022-12-27T13:09:03.559Z,7.74
2022-12-27T13:11:49.393Z,7.47
2022-12-27T13:14:38.365Z,7.50
2022-12-27T13:17:16.452Z,8.21
2022-12-27T13:20:07.946Z,8.15
2022-12-27T13:22:47.305Z,7.96
2022-12-27T13:25:22.906Z,7.92
2022-12-27T13:27:55.010Z,7.89
2022-12-27T13:30:25.999Z,7.84
2022-12-27T13:33:22.841Z,8.16
2022-12-27T13:36:04.602Z,8.30
2022-12-27T13:38:46.037Z,8.02
2022-12-27T13:41:33.457Z,7.85
2022-12-27T13:44:33.622Z,7.84
2022-12-27T13:47:22.928Z,7.63
2022-12-27T13:50:32.214Z,7.03
2022-12-27T13:53:21.239Z,7.12
2022-12-27T13:55:56.484Z,7.17
2022-12-27T13:58:59.738Z,6.95
2022-12-27T14:01:46.962Z,6.93
2022-12-27T14:04:44.839Z,6.56
2022-12-27T14:07:27.726Z,6.76
2022-12-27T14:10:09.928Z,6.67
2022-12-27T14:12:57.209Z,7.23
2022-12-27T14:15:30.965Z,6.56
2022-12-27T14:18:15.323Z,6.88
2022-12-27T14:20:57.530Z,6.52
2022-12-27T14:23:39.512Z,5.82
2022-12-27T14:26:51.619Z,5.83
2022-12-27T14:30:00.507Z,5.57
2022-12-27T14:32:54.272Z,5.74
2022-12-27T14:35:56.627Z,5.94
2022-12-27T14:38:47.880Z,6.01
2022-12-27T14:41:48.116Z,6.07
2022-12-27T14:44:45.597Z,6.13
2022-12-27T14:47:46.943Z,6.16
2022-12-27T14:50:35.111Z,5.94
2022-12-27T14:53:31.016Z,5.30
2022-12-27T14:56:08.257Z,5.45
2022-12-27T14:59:01.912Z,5.46
2022-12-27T15:01:44.474Z,5.81
2022-12-27T15:04:35.702Z,5.78
2022-12-27T15:07:37.505Z,5.79
2022-12-27T15:10:15.152Z,5.64
2022-12-27T15:12:52.451Z,5.64
2022-12-27T15:15:37.160Z,6.09
2022-12-27T15:18:30.523Z,5.51
2022-12-27T15:21:16.551Z,5.71
2022-12-27T15:23:51.826Z,5.78
2022-12-27T15:26:30.083Z,6.15
2022-12-27T15:29:10.998Z,5.51
2022-12-27T15:31:50.105Z,5.46
2022-12-27T15:34:34.794Z,5.62
2022-12-27T15:37:02.894Z,5.60
2022-12-27T15:39:50.460Z,5.04
2022-12-27T15:42:48.610Z,5.18
2022-12-27T15:45:31.340Z,5.10
2022-12-27T15:48:30.882Z,5.15
2022-12-27T15:51:07.652Z,5.12
2022-12-27T15:53:48.767Z,5.11
2022-12-27T15:56:36.942Z,5.41
2022-12-27T15:59:35.972Z,5.54
2022-12-27T16:02:42.053Z,5.61
2022-12-27T16:05:35.221Z,5.14
2022-12-27T16:08:35.301Z,5.13
2022-12-27T16:11:05.694Z,5.22
2022-12-27T16:13:41.801Z,5.12
2022-12-27T16:16:28.060Z,5.56
2022-12-27T16:19:13.881Z,5.06
2022-12-27T16:21:44.420Z,5.16
2022-12-27T16:24:19.768Z,5.10
2022-12-27T16:27:01.573Z,4.82
2022-12-27T16:29:32.450Z,5.19
2022-12-27T16:32:20.593Z,5.04
2022-12-27T16:34:54.191Z,4.65
2022-12-27T16:37:29.008Z,4.57
2022-12-27T16:40:18.099Z,4.51
2022-12-27T16:43:28.444Z,5.12
2022-12-27T16:46:06.737Z,4.94
2022-12-27T16:48:46.933Z,4.87
2022-12-27T16:51:22.049Z,4.85
2022-12-27T16:54:05.022Z,4.94
2022-12-27T16:56:34.105Z,4.67
2022-12-27T16:59:01.859Z,4.60
2022-12-27T17:01:46.697Z,4.46
2022-12-27T17:04:49.767Z,4.27
2022-12-27T17:07:44.322Z,4.23
2022-12-27T17:10:34.042Z,4.45
2022-12-27T17:13:09.128Z,4.40
2022-12-27T17:15:44.890Z,4.43
2022-12-27T17:18:27.662Z,4.77
2022-12-27T17:21:03.060Z,4.57
2022-12-27T17:23:32.235Z,4.76
2022-12-27T17:26:20.685Z,4.70
2022-12-27T17:28:55.517Z,4.50
2022-12-27T17:31:31.457Z,4.39
2022-12-27T17:34:07.673Z,4.18
2022-12-27T17:36:46.018Z,4.54
2022-12-27T17:39:27.431Z,4.67
2022-12-27T17:42:20.014Z,4.96
2022-12-27T17:45:12.427Z,4.61
2022-12-27T17:48:07.524Z,4.85
2022-12-27T17:50:37.702Z,4.80
2022-12-27T17:53:34.399Z,4.76
2022-12-27T17:56:31.827Z,4.78
2022-12-27T17:59:04.461Z,4.67
2022-12-27T18:01:34.556Z,4.63
2022-12-27T18:04:04.909Z,4.82
2022-12-27T18:06:32.739Z,4.54
2022-12-27T18:09:00.330Z,4.50
2022-12-27T18:11:32.592Z,4.10
2022-12-27T18:14:00.689Z,4.06
2022-12-27T18:16:37.239Z,4.15
2022-12-27T18:19:05.427Z,4.14
2022-12-27T18:21:33.254Z,4.39
2022-12-27T18:24:00.733Z,4.44
2022-12-27T18:26:37.442Z,4.30
2022-12-27T18:29:05.767Z,4.34
2022-12-27T18:31:37.097Z,4.21
2022-12-27T18:34:08.292Z,4.22
2022-12-27T18:36:41.092Z,4.26
2022-12-27T18:39:18.915Z,4.24
2022-12-27T18:41:51.416Z,4.15
2022-12-27T18:44:27.068Z,3.79
2022-12-27T18:46:57.834Z,3.46
2022-12-27T18:49:27.406Z,3.54
2022-12-27T18:51:55.666Z,3.84
2022-12-27T18:54:33.259Z,3.69
2022-12-27T18:57:04.108Z,3.68
2022-12-27T18:59:33.135Z,3.90
2022-12-27T19:02:03.712Z,3.84
2022-12-27T19:04:32.714Z,4.01
2022-12-27T19:07:10.467Z,4.10
2022-12-27T19:09:42.471Z,3.91
2022-12-27T19:12:23.554Z,3.89
2022-12-27T19:14:51.548Z,4.07
2022-12-27T19:17:22.678Z,4.13
2022-12-27T19:19:52.492Z,4.09
2022-12-27T19:22:37.009Z,3.73
2022-12-27T19:25:07.554Z,3.59
2022-12-27T19:27:36.355Z,3.55
2022-12-27T19:30:04.299Z,3.68
2022-12-27T19:32:33.651Z,3.11
2022-12-27T19:35:04.037Z,3.14
2022-12-27T19:37:33.340Z,3.23
2022-12-27T19:40:01.029Z,3.40
2022-12-27T19:42:31.175Z,3.48
2022-12-27T19:45:00.011Z,3.25
2022-12-27T19:47:27.911Z,3.17
2022-12-27T19:49:55.399Z,3.26
2022-12-27T19:52:24.843Z,3.26
2022-12-27T19:54:57.581Z,3.18
2022-12-27T19:57:25.082Z,3.02
2022-12-27T19:59:52.790Z,2.93
2022-12-27T20:02:23.369Z,2.90
2022-12-27T20:04:51.077Z,2.93
2022-12-27T20:07:22.720Z,2.94
2022-12-27T20:09:50.306Z,2.79
2022-12-27T20:12:17.887Z,2.71
2022-12-27T20:14:45.486Z,2.54
2022-12-27T20:17:12.989Z,2.37
2022-12-27T20:19:41.882Z,2.36
2022-12-27T20:22:09.394Z,2.47
2022-12-27T20:24:37.781Z,2.12
2022-12-27T20:27:05.446Z,2.36
2022-12-27T20:29:33.014Z,2.52
2022-12-27T20:32:00.661Z,2.19
2022-12-27T20:34:28.199Z,2.22
2022-12-27T20:36:58.159Z,1.87
2022-12-27T20:39:25.628Z,2.17
2022-12-27T20:41:53.103Z,2.34
2022-12-27T20:44:20.602Z,2.24
2022-12-27T20:46:48.533Z,1.86
2022-12-27T20:49:16.029Z,1.87
2022-12-27T20:51:43.506Z,2.05
2022-12-27T20:54:15.065Z,2.27
2022-12-27T20:56:42.602Z,2.34
2022-12-27T20:59:10.092Z,2.30
2022-12-27T21:01:37.682Z,2.07
2022-12-27T21:04:06.166Z,1.79
2022-12-27T21:06:33.838Z,1.60
2022-12-27T21:09:01.296Z,1.71
2022-12-27T21:11:32.148Z,2.11
2022-12-27T21:14:01.383Z,2.28
2022-12-27T21:16:30.402Z,2.36
2022-12-27T21:18:58.076Z,2.14
2022-12-27T21:21:28.791Z,1.92
2022-12-27T21:23:57.255Z,1.89
2022-12-27T21:26:26.627Z,1.97
2022-12-27T21:28:56.486Z,2.14
2022-12-27T21:31:24.280Z,1.59
2022-12-27T21:33:52.137Z,1.87
2022-12-27T21:36:21.645Z,1.78
2022-12-27T21:38:49.497Z,2.01
2022-12-27T21:41:18.617Z,1.99
2022-12-27T21:43:47.416Z,1.82
2022-12-27T21:46:18.430Z,1.92
2022-12-27T21:48:47.771Z,2.04
2022-12-27T21:51:18.318Z,1.97
2022-12-27T21:53:46.836Z,1.87
2022-12-27T21:56:15.782Z,1.82
2022-12-27T21:58:44.734Z,2.05
2022-12-27T22:01:14.230Z,2.06
2022-12-27T22:03:45.216Z,2.00
2022-12-27T22:06:14.519Z,2.06
2022-12-27T22:08:43.107Z,2.13
2022-12-27T22:11:11.067Z,2.26
2022-12-27T22:13:38.937Z,2.08
2022-12-27T22:16:08.608Z,1.95
2022-12-27T22:18:39.686Z,1.65
2022-12-27T22:21:09.734Z,2.17
2022-12-27T22:23:38.916Z,1.96
2022-12-27T22:26:10.980Z,2.06
2022-12-27T22:28:38.675Z,2.18
2022-12-27T22:31:06.630Z,2.28
2022-12-27T22:33:35.105Z,2.24
2022-12-27T22:36:03.946Z,2.24
2022-12-27T22:38:33.545Z,2.03
2022-12-27T22:41:05.814Z,2.05
2022-12-27T22:43:33.294Z,2.08
2022-12-27T22:46:00.805Z,2.04
2022-12-27T22:48:28.306Z,2.02
2022-12-27T22:50:55.794Z,1.93
2022-12-27T22:53:23.659Z,1.90
2022-12-27T22:55:52.484Z,2.07
2022-12-27T22:58:19.964Z,1.96
2022-12-27T23:00:47.442Z,1.69
2022-12-27T23:03:14.948Z,1.81
2022-12-27T23:05:42.467Z,2.06
2022-12-27T23:08:09.943Z,1.87
2022-12-27T23:10:37.487Z,1.82
2022-12-27T23:13:06.343Z,1.86
2022-12-27T23:15:33.835Z,1.65
2022-12-27T23:18:01.326Z,1.47
2022-12-27T23:20:28.812Z,1.44
2022-12-27T23:22:56.305Z,1.63
2022-12-27T23:25:23.776Z,1.93
2022-12-27T23:27:51.313Z,2.16
2022-12-27T23:30:22.840Z,2.30
2022-12-27T23:32:50.338Z,2.02
2022-12-27T23:35:18.053Z,2.11
2022-12-27T23:37:45.555Z,1.90
2022-12-27T23:40:13.388Z,2.19
2022-12-27T23:42:40.893Z,2.37
2022-12-27T23:45:09.719Z,2.46
2022-12-27T23:47:38.656Z,2.40
2022-12-27T23:50:06.939Z,2.31
2022-12-27T23:52:34.443Z,2.21
2022-12-27T23:55:02.240Z,2.31
2022-12-27T23:57:29.717Z,2.19
2022-12-27T23:59:57.187Z,2.24
